Time;durP1;ratioP1;P1;durP2;ratioP2;P2;SDS_P1;SDS_P2;PMS_P1;PMS_P2;Temp;Humidity;BMP_temperature;BMP_pressure;BME280_temperature;BME280_humidity;BME280_pressure;Samples;Min_cycle;Max_cycle;Signal;HPM_P1;HPM_P2
2022/08/10 00:01:12;;;;;;;5.22;4.20;;;;;;;18.22;100.00;100917.42;1735752;81;21004;-42
2022/08/10 00:03:39;;;;;;;4.20;3.72;;;;;;;18.19;100.00;100915.81;1736012;82;21521;-42
2022/08/10 00:06:06;;;;;;;5.92;3.90;;;;;;;18.17;100.00;100916.77;1745939;81;20932;-42
2022/08/10 00:08:35;;;;;;;3.85;3.60;;;;;;;18.16;100.00;100916.38;1749967;82;21066;-42
2022/08/10 00:11:03;;;;;;;4.03;3.62;;;;;;;18.12;100.00;100918.27;1749834;81;21260;-42
2022/08/10 00:13:30;;;;;;;4.72;3.47;;;;;;;18.09;100.00;100915.34;1749719;82;20873;-42
2022/08/10 00:15:57;;;;;;;10.10;3.60;;;;;;;18.07;100.00;100915.88;1749874;82;20967;-41
2022/08/10 00:18:24;;;;;;;3.70;3.37;;;;;;;18.04;100.00;100918.59;1749813;81;20988;-42
2022/08/10 00:20:51;;;;;;;4.05;3.75;;;;;;;18.01;100.00;100920.03;1722191;82;20908;-42
2022/08/10 00:23:20;;;;;;;4.78;3.33;;;;;;;17.98;100.00;100917.52;1722211;82;21237;-42
2022/08/10 00:25:47;;;;;;;5.72;3.62;;;;;;;17.96;100.00;100927.21;1749658;82;20972;-42
2022/08/10 00:28:14;;;;;;;4.30;3.90;;;;;;;17.92;100.00;100919.93;1749790;82;20963;-42
2022/08/10 00:30:41;;;;;;;11.50;3.60;;;;;;;17.89;100.00;100919.23;1749866;82;20936;-42
2022/08/10 00:33:08;;;;;;;3.45;3.17;;;;;;;17.86;100.00;100918.05;1749513;82;20968;-41
2022/08/10 00:35:35;;;;;;;3.72;3.50;;;;;;;17.83;100.00;100928.18;1736012;82;21152;-42
2022/08/10 00:38:02;;;;;;;5.58;3.27;;;;;;;17.80;100.00;100920.46;1719995;83;20900;-42
2022/08/10 00:40:29;;;;;;;5.15;3.52;;;;;;;17.78;100.00;100927.05;1720124;83;20920;-42
2022/08/10 00:42:56;;;;;;;2.98;2.77;;;;;;;17.75;100.00;100931.11;1720011;83;20995;-41
2022/08/10 00:45:23;;;;;;;7.08;3.17;;;;;;;17.74;100.00;100933.81;1720081;83;20979;-42
2022/08/10 00:47:49;;;;;;;7.53;3.50;;;;;;;17.71;100.00;100928.70;1719970;83;21246;-42
2022/08/10 00:50:19;;;;;;;3.12;2.92;;;;;;;17.69;100.00;100932.68;1693186;83;21521;-42
2022/08/10 00:52:46;;;;;;;5.03;2.77;;;;;;;17.68;100.00;100932.28;1720265;83;20944;-44
2022/08/10 00:55:13;;;;;;;3.45;3.10;;;;;;;17.65;100.00;100930.63;1720152;83;20964;-42
2022/08/10 00:57:40;;;;;;;7.08;3.12;;;;;;;17.65;100.00;100928.02;1720062;83;20964;-42
2022/08/10 01:00:08;;;;;;;4.05;3.15;;;;;;;17.64;100.00;100925.00;1720183;83;21804;-42
2022/08/10 01:02:36;;;;;;;2.98;2.77;;;;;;;17.62;100.00;100922.08;1719804;83;21567;-42
2022/08/10 01:05:09;;;;;;;6.42;3.02;;;;;;;17.61;100.00;100921.67;1691038;83;21102;-42
2022/08/10 01:08:10;;;;;;;3.17;2.95;;;;;;;17.60;100.00;100920.81;1706382;84;21031;-42
2022/08/10 01:10:45;;;;;;;2.90;2.70;;;;;;;17.59;100.00;100916.49;1706548;84;20933;-42
2022/08/10 01:13:24;;;;;;;3.35;3.00;;;;;;;17.59;100.00;100919.11;1706697;84;21848;-41
2022/08/10 01:16:33;;;;;;;7.42;2.75;;;;;;;17.59;100.00;100916.97;1689188;84;20930;-42
2022/08/10 01:19:18;;;;;;;4.10;3.00;;;;;;;17.58;100.00;100908.72;1706543;83;20865;-42
2022/08/10 01:22:05;;;;;;;4.47;2.62;;;;;;;17.57;100.00;100912.25;1706464;83;20877;-41
2022/08/10 01:24:55;;;;;;;6.47;3.10;;;;;;;17.55;100.00;100910.12;1686383;84;20953;-42
2022/08/10 01:28:04;;;;;;;3.08;2.70;;;;;;;17.52;100.00;100917.66;1706460;84;21252;-42
2022/08/10 01:30:32;;;;;;;2.80;2.62;;;;;;;17.48;100.00;100905.63;1706369;84;20889;-42
2022/08/10 01:33:12;;;;;;;3.47;3.17;;;;;;;17.46;100.00;100908.28;1706412;84;20964;-42
2022/08/10 01:35:48;;;;;;;2.77;2.55;;;;;;;17.44;100.00;100906.19;1705737;83;20901;-43
2022/08/10 01:38:26;;;;;;;2.70;2.50;;;;;;;17.44;100.00;100901.43;1706463;84;21486;-43
2022/08/10 01:41:24;;;;;;;3.00;2.70;;;;;;;17.42;100.00;100905.41;1706533;84;21537;-42
2022/08/10 01:43:59;;;;;;;4.92;2.58;;;;;;;17.40;100.00;100900.69;1686152;84;21091;-43
2022/08/10 01:46:26;;;;;;;6.22;1.80;;;;;;;17.38;100.00;100897.28;1706524;84;20952;-42
2022/08/10 01:48:55;;;;;;;3.77;2.95;;;;;;;17.37;100.00;100896.89;1706525;83;20941;-42
2022/08/10 01:51:31;;;;;;;5.90;2.70;;;;;;;17.33;100.00;100897.46;1706476;83;21035;-42
2022/08/10 01:54:11;;;;;;;4.65;2.60;;;;;;;17.29;100.00;100895.88;1687515;83;21070;-42
2022/08/10 01:56:43;;;;;;;4.10;3.05;;;;;;;17.28;100.00;100903.78;1706472;84;20917;-42
2022/08/10 01:59:28;;;;;;;5.60;2.50;;;;;;;17.25;100.00;100902.16;1706775;84;20901;-42
2022/08/10 02:02:00;;;;;;;4.55;2.67;;;;;;;17.23;100.00;100910.52;1706325;83;21629;-42
2022/08/10 02:04:28;;;;;;;3.52;2.92;;;;;;;17.20;100.00;100910.17;1706356;84;20937;-42
2022/08/10 02:06:55;;;;;;;3.12;2.70;;;;;;;17.19;100.00;100915.48;1716714;83;21164;-42
2022/08/10 02:09:28;;;;;;;7.70;2.83;;;;;;;17.17;100.00;100910.30;1719922;82;20932;-42
2022/08/10 02:11:58;;;;;;;9.38;2.58;;;;;;;17.13;100.00;100906.09;1719978;83;20999;-42
2022/08/10 02:14:30;;;;;;;6.10;3.05;;;;;;;17.09;100.00;100903.22;1719821;82;21512;-42
2022/08/10 02:16:57;;;;;;;5.42;2.72;;;;;;;17.07;100.00;100910.27;1720157;83;21130;-42
2022/08/10 02:19:24;;;;;;;2.90;2.60;;;;;;;17.04;100.00;100906.44;1719968;83;21148;-42
2022/08/10 02:21:51;;;;;;;3.47;2.42;;;;;;;17.04;100.00;100902.52;1693243;83;20893;-42
2022/08/10 02:24:19;;;;;;;2.52;2.12;;;;;;;17.02;100.00;100899.98;1719857;83;21044;-42
2022/08/10 02:26:46;;;;;;;2.98;2.58;;;;;;;17.02;100.00;100903.03;1719926;83;20928;-42
2022/08/10 02:29:14;;;;;;;2.85;2.65;;;;;;;17.00;100.00;100897.87;1720063;83;20904;-42
2022/08/10 02:31:42;;;;;;;4.60;2.65;;;;;;;16.98;100.00;100898.39;1693399;83;20993;-42
2022/08/10 02:34:12;;;;;;;2.83;2.52;;;;;;;16.98;100.00;100894.87;1719753;83;20963;-42
2022/08/10 02:36:46;;;;;;;6.40;2.67;;;;;;;16.95;100.00;100892.78;1719957;83;21611;-42
2022/08/10 02:39:13;;;;;;;3.05;2.83;;;;;;;16.95;100.00;100886.72;1720011;83;21470;-42
2022/08/10 02:41:55;;;;;;;4.03;2.95;;;;;;;16.93;100.00;100880.70;1720015;83;20881;-42
2022/08/10 02:44:47;;;;;;;5.83;2.98;;;;;;;16.91;100.00;100884.66;1719710;83;21116;-42
2022/08/10 02:47:53;;;;;;;7.10;3.05;;;;;;;16.90;100.00;100878.17;1720326;83;20841;-42
2022/08/10 02:50:34;;;;;;;3.10;2.70;;;;;;;16.91;100.00;100883.36;1719856;83;21437;-42
2022/08/10 02:53:17;;;;;;;2.90;2.70;;;;;;;16.92;100.00;100892.90;1719729;82;20940;-42
2022/08/10 02:55:52;;;;;;;2.65;2.40;;;;;;;16.92;100.00;100884.19;1719912;83;20885;-42
2022/08/10 02:58:27;;;;;;;7.92;2.70;;;;;;;16.93;100.00;100885.45;1720105;83;21253;-42
2022/08/10 03:00:55;;;;;;;5.42;2.80;;;;;;;16.96;100.00;100884.50;1719870;82;20881;-42
2022/08/10 03:03:28;;;;;;;4.28;2.75;;;;;;;16.98;100.00;100892.27;1719902;83;21011;-42
2022/08/10 03:06:03;;;;;;;10.28;3.42;;;;;;;17.01;100.00;100900.89;1719892;83;20873;-42
2022/08/10 03:08:33;;;;;;;6.17;2.80;;;;;;;17.03;100.00;100895.14;1720098;83;20936;-43
2022/08/10 03:11:02;;;;;;;4.85;2.80;;;;;;;17.07;100.00;100900.64;1720027;83;21120;-42
2022/08/10 03:13:28;;;;;;;8.98;3.10;;;;;;;17.13;100.00;100896.95;1719701;82;20869;-42
2022/08/10 03:15:55;;;;;;;3.87;3.00;;;;;;;17.18;100.00;100895.47;1719977;83;21529;-42
2022/08/10 03:18:23;;;;;;;5.10;3.15;;;;;;;17.23;100.00;100894.83;1719669;83;20960;-42
2022/08/10 03:22:03;;;;;;;3.08;2.87;;;;;;;17.35;100.00;100896.11;1816016;79;24065;-41
2022/08/10 03:24:30;;;;;;;6.58;3.05;;;;;;;17.33;100.00;100893.53;1789208;80;20876;-41
2022/08/10 03:26:57;;;;;;;4.28;3.20;;;;;;;17.40;100.00;100897.20;1776863;80;21098;-41
2022/08/10 03:29:24;;;;;;;3.80;3.05;;;;;;;17.46;100.00;100896.98;1730576;81;21007;-41
2022/08/10 03:31:51;;;;;;;7.80;2.95;;;;;;;17.50;100.00;100899.39;1730589;81;21437;-41
2022/08/10 03:34:18;;;;;;;11.83;2.83;;;;;;;17.56;100.00;100907.46;1760475;81;20964;-41
2022/08/10 03:36:45;;;;;;;3.65;3.02;;;;;;;17.63;100.00;100904.14;1760275;80;20932;-42
2022/08/10 03:39:12;;;;;;;4.87;3.25;;;;;;;17.68;100.00;100906.11;1760357;81;21275;-41
2022/08/10 03:41:47;;;;;;;4.58;3.15;;;;;;;17.75;100.00;100911.48;1730902;81;21006;-41
2022/08/10 03:44:18;;;;;;;4.62;3.00;;;;;;;17.83;100.00;100917.71;1760182;81;20924;-41
2022/08/10 03:46:47;;;;;;;8.58;2.92;;;;;;;17.91;100.00;100916.09;1759380;81;20935;-42
2022/08/10 03:49:14;;;;;;;5.17;2.90;;;;;;;18.02;100.00;100915.67;1760324;81;20960;-42
2022/08/10 03:51:41;;;;;;;4.85;3.20;;;;;;;18.09;100.00;100913.17;1760237;79;21231;-42
2022/08/10 03:54:09;;;;;;;8.73;3.20;;;;;;;18.22;100.00;100918.73;1731108;81;20988;-42
2022/08/10 03:56:38;;;;;;;2.70;2.50;;;;;;;18.36;100.00;100915.06;1760288;80;20935;-42
2022/08/10 03:59:09;;;;;;;3.20;2.87;;;;;;;18.55;100.00;100918.16;1760167;81;21011;-42
2022/08/10 04:01:36;;;;;;;5.28;3.37;;;;;;;18.73;100.00;100916.95;1760131;81;21465;-42
2022/08/10 04:04:05;;;;;;;4.35;3.27;;;;;;;18.90;100.00;100914.86;1760523;81;21252;-41
2022/08/10 04:06:31;;;;;;;6.30;3.00;;;;;;;19.04;100.00;100911.18;1760331;81;20920;-41
2022/08/10 04:08:58;;;;;;;4.80;3.15;;;;;;;19.17;100.00;100919.77;1730556;81;20978;-41
2022/08/10 04:11:25;;;;;;;11.57;3.27;;;;;;;19.26;100.00;100915.86;1760277;81;20959;-41
2022/08/10 04:13:53;;;;;;;5.50;3.10;;;;;;;19.37;100.00;100909.66;1760438;80;20928;-42
2022/08/10 04:16:19;;;;;;;4.22;3.05;;;;;;;19.48;100.00;100912.59;1760283;80;21221;-41
2022/08/10 04:18:46;;;;;;;5.53;3.10;;;;;;;19.60;100.00;100912.94;1760232;81;20915;-41
2022/08/10 04:21:18;;;;;;;3.00;2.80;;;;;;;19.74;100.00;100916.19;1752987;80;20941;-42
2022/08/10 04:23:46;;;;;;;4.10;3.60;;;;;;;19.90;100.00;100917.58;1747104;80;20964;-41
2022/08/10 04:26:13;;;;;;;3.35;2.90;;;;;;;19.99;100.00;100918.92;1747190;80;21474;-41
2022/08/10 04:28:40;;;;;;;2.60;2.50;;;;;;;20.10;100.00;100916.14;1747336;82;21259;-42
2022/08/10 04:31:08;;;;;;;4.10;2.77;;;;;;;20.20;100.00;100920.42;1747073;82;20909;-42
2022/08/10 04:33:36;;;;;;;5.65;3.30;;;;;;;20.28;100.00;100916.09;1746534;80;21380;-41
2022/08/10 04:36:04;;;;;;;7.47;3.75;;;;;;;20.43;100.00;100918.37;1725479;81;20889;-42
2022/08/10 04:38:31;;;;;;;3.27;2.80;;;;;;;20.52;100.00;100917.91;1746794;82;20943;-42
2022/08/10 04:40:58;;;;;;;6.12;3.45;;;;;;;20.60;100.00;100916.20;1746607;80;21194;-41
2022/08/10 04:43:24;;;;;;;6.50;3.42;;;;;;;20.64;100.00;100920.35;1746685;80;21011;-42
2022/08/10 04:45:51;;;;;;;3.85;3.45;;;;;;;20.63;100.00;100923.05;1725728;82;21056;-42
2022/08/10 04:48:23;;;;;;;3.47;3.27;;;;;;;20.65;100.00;100918.11;1746774;82;20976;-42
2022/08/10 04:50:50;;;;;;;3.72;3.33;;;;;;;20.73;100.00;100922.96;1746768;80;20983;-41
2022/08/10 04:53:17;;;;;;;5.55;3.33;;;;;;;20.77;100.00;100920.54;1746859;82;21419;-41
2022/08/10 04:55:44;;;;;;;11.88;3.40;;;;;;;20.86;100.00;100917.05;1746657;82;20964;-41
2022/08/10 04:58:11;;;;;;;4.53;3.10;;;;;;;20.95;100.00;100908.19;1746549;82;20977;-41
2022/08/10 05:00:39;;;;;;;4.55;3.25;;;;;;;21.03;100.00;100910.85;1746570;82;20936;-41
2022/08/10 05:03:06;;;;;;;4.70;4.20;;;;;;;21.06;100.00;100908.91;1746545;82;20988;-42
2022/08/10 05:05:34;;;;;;;8.80;3.42;;;;;;;21.17;100.00;100908.31;1746678;80;21148;-42
2022/08/10 05:08:01;;;;;;;4.85;3.85;;;;;;;21.27;100.00;100910.42;1746516;82;20889;-42
2022/08/10 05:10:28;;;;;;;4.40;3.83;;;;;;;21.38;100.00;100905.41;1746676;80;20924;-41
2022/08/10 05:12:55;;;;;;;9.05;3.62;;;;;;;21.49;100.00;100905.63;1746503;82;21012;-41
2022/08/10 05:15:23;;;;;;;3.90;3.50;;;;;;;21.60;100.00;100910.73;1746695;82;21019;-41
2022/08/10 05:17:50;;;;;;;4.30;3.58;;;;;;;21.72;100.00;100914.02;1750350;81;21285;-42
2022/08/10 05:20:17;;;;;;;4.05;3.75;;;;;;;21.85;99.59;100918.55;1746773;80;21549;-41
2022/08/10 05:22:44;;;;;;;4.35;4.00;;;;;;;21.92;98.36;100902.78;1763023;81;20972;-41
2022/08/10 05:25:14;;;;;;;7.78;3.40;;;;;;;21.97;98.54;100915.21;1762903;81;20938;-42
2022/08/10 05:27:42;;;;;;;4.72;3.90;;;;;;;22.07;98.36;100922.10;1761698;80;20846;-42
2022/08/10 05:30:13;;;;;;;7.22;3.70;;;;;;;22.15;97.44;100922.97;1762813;81;21907;-42
2022/08/10 05:32:41;;;;;;;5.85;4.00;;;;;;;22.22;97.53;100919.02;1761731;81;21507;-42
2022/08/10 05:35:09;;;;;;;8.50;3.65;;;;;;;22.28;96.34;100912.53;1762924;81;20929;-41
2022/08/10 05:37:36;;;;;;;4.50;4.10;;;;;;;22.24;96.40;100911.86;1763020;81;21435;-42
2022/08/10 05:40:05;;;;;;;6.22;3.98;;;;;;;22.24;96.95;100906.58;1737207;81;20958;-41
2022/08/10 05:42:32;;;;;;;4.90;3.45;;;;;;;22.27;96.56;100907.71;1762978;81;21802;-42
2022/08/10 05:44:59;;;;;;;5.40;3.83;;;;;;;22.29;96.89;100901.87;1762903;81;20977;-42
2022/08/10 05:47:26;;;;;;;6.78;4.03;;;;;;;22.31;96.76;100909.22;1763051;81;21458;-41
2022/08/10 05:49:54;;;;;;;7.95;3.80;;;;;;;22.36;95.53;100907.63;1762939;81;20992;-41
2022/08/10 05:52:21;;;;;;;4.28;3.92;;;;;;;22.37;95.92;100916.77;1763028;81;20956;-42
2022/08/10 05:54:48;;;;;;;5.72;4.15;;;;;;;22.39;95.70;100914.89;1763004;81;22145;-42
2022/08/10 05:57:16;;;;;;;4.92;4.35;;;;;;;22.39;94.89;100918.84;1762933;81;20960;-42
2022/08/10 05:59:50;;;;;;;6.55;3.92;;;;;;;22.41;95.44;100906.03;1737365;81;21574;-42
2022/08/10 06:02:23;;;;;;;4.08;3.77;;;;;;;22.49;95.31;100907.75;1762895;81;20988;-42
2022/08/10 06:04:51;;;;;;;5.83;4.08;;;;;;;22.57;95.22;100911.23;1762857;81;20932;-41
2022/08/10 06:07:18;;;;;;;9.48;3.72;;;;;;;22.64;93.84;100905.95;1763155;80;21455;-42
2022/08/10 06:09:45;;;;;;;7.95;4.30;;;;;;;22.68;93.31;100908.77;1762880;81;20972;-41
2022/08/10 06:12:13;;;;;;;5.03;4.00;;;;;;;22.74;93.73;100908.86;1762820;80;20977;-42
2022/08/10 06:17:29;;;;;;;12.95;4.87;;;;;;;22.91;92.42;100912.61;1763080;81;20984;-41
2022/08/10 06:19:57;;;;;;;5.05;4.33;;;;;;;22.93;92.40;100907.22;1763078;81;21176;-42
2022/08/10 06:22:26;;;;;;;10.45;4.30;;;;;;;23.04;92.58;100910.49;1750382;81;20991;-42
2022/08/10 06:24:55;;;;;;;5.45;4.67;;;;;;;23.18;90.31;100913.56;1746537;81;21556;-42
2022/08/10 06:27:22;;;;;;;7.85;4.20;;;;;;;23.18;89.98;100914.42;1746509;82;21006;-42
2022/08/10 06:29:50;;;;;;;4.72;4.33;;;;;;;23.16;90.49;100909.72;1746518;82;20850;-42
2022/08/10 06:32:17;;;;;;;7.25;3.95;;;;;;;23.15;89.81;100910.67;1725388;81;21181;-42
2022/08/10 06:34:48;;;;;;;5.80;4.03;;;;;;;23.16;91.17;100913.68;1746382;81;21451;-43
2022/08/10 06:37:17;;;;;;;4.55;3.52;;;;;;;23.25;90.29;100909.14;1746582;82;20925;-42
2022/08/10 06:39:44;;;;;;;4.22;3.92;;;;;;;23.22;89.55;100911.95;1746440;82;20999;-43
2022/08/10 06:42:33;;;;;;;10.35;4.53;;;;;;;23.27;88.88;100912.16;1746642;82;20956;-42
2022/08/10 06:45:05;;;;;;;7.90;4.20;;;;;;;23.28;90.27;100915.17;1740263;82;21286;-42
2022/08/10 06:48:01;;;;;;;4.33;4.00;;;;;;;23.30;88.66;100911.49;1746818;82;20972;-42
2022/08/10 06:50:45;;;;;;;4.22;3.80;;;;;;;23.34;89.15;100909.48;1746487;80;21475;-42
2022/08/10 06:53:16;;;;;;;4.33;3.92;;;;;;;23.38;89.21;100907.03;1746766;82;20921;-42
2022/08/10 06:55:47;;;;;;;4.25;3.95;;;;;;;23.49;88.29;100904.52;1746564;80;21518;-43
2022/08/10 06:58:14;;;;;;;5.47;4.17;;;;;;;23.64;89.37;100911.06;1746852;80;21351;-42
2022/08/10 07:00:41;;;;;;;3.80;3.52;;;;;;;23.80;88.34;100914.36;1746487;81;20948;-43
2022/08/10 07:03:10;;;;;;;5.45;4.20;;;;;;;23.89;87.18;100905.45;1746706;82;20944;-42
2022/08/10 07:05:46;;;;;;;12.95;5.17;;;;;;;23.92;85.78;100915.81;1746856;82;20967;-42
2022/08/10 07:08:16;;;;;;;4.62;4.22;;;;;;;23.96;84.99;100907.55;1746510;82;20984;-42
2022/08/10 07:10:44;;;;;;;7.78;4.37;;;;;;;23.99;86.25;100910.47;1746745;81;21184;-42
2022/08/10 07:13:11;;;;;;;4.65;4.33;;;;;;;24.08;85.14;100899.29;1746495;80;20881;-42
2022/08/10 07:15:39;;;;;;;10.95;4.22;;;;;;;24.15;85.58;100911.62;1746557;82;21006;-42
2022/08/10 07:18:06;;;;;;;4.60;4.20;;;;;;;24.25;86.18;100899.93;1746565;82;20960;-42
2022/08/10 07:20:32;;;;;;;4.70;4.30;;;;;;;24.41;85.78;100902.84;1746614;82;21015;-43
2022/08/10 07:22:59;;;;;;;7.58;3.98;;;;;;;24.57;85.32;100908.72;1746680;80;21232;-43
2022/08/10 07:25:27;;;;;;;4.58;4.10;;;;;;;24.72;85.14;100912.08;1746579;81;20924;-43
2022/08/10 07:27:55;;;;;;;4.85;4.40;;;;;;;24.80;83.36;100905.81;1746654;82;20956;-42
2022/08/10 07:30:22;;;;;;;5.47;4.20;;;;;;;24.87;82.95;100905.36;1725308;82;21690;-43
2022/08/10 07:32:50;;;;;;;8.23;4.50;;;;;;;24.98;82.12;100898.80;1746338;82;20916;-42
2022/08/10 07:35:17;;;;;;;5.17;4.83;;;;;;;25.00;83.08;100896.05;1725214;82;21903;-42
2022/08/10 07:37:48;;;;;;;6.00;4.62;;;;;;;25.11;83.46;100896.95;1746524;82;20921;-43
2022/08/10 07:40:18;;;;;;;7.17;4.33;;;;;;;25.13;83.31;100896.00;1746617;82;20897;-43
2022/08/10 07:42:46;;;;;;;9.00;4.60;;;;;;;25.07;82.80;100897.28;1750448;82;20925;-42
2022/08/10 07:45:13;;;;;;;5.20;4.65;;;;;;;25.10;82.83;100900.56;1746573;80;21394;-43
2022/08/10 07:47:49;;;;;;;8.38;5.28;;;;;;;25.28;80.82;100902.83;1746488;82;21022;-42
2022/08/10 07:50:19;;;;;;;6.40;5.47;;;;;;;25.29;81.57;100899.22;1746567;82;21466;-43
2022/08/10 07:52:46;;;;;;;6.17;4.83;;;;;;;25.24;81.66;100905.31;1746600;82;20964;-43
2022/08/10 07:55:16;;;;;;;5.58;4.85;;;;;;;25.16;82.69;100900.60;1746408;80;20845;-43
2022/08/10 07:57:44;;;;;;;5.42;4.95;;;;;;;25.23;82.44;100899.65;1746323;82;20988;-42
2022/08/10 08:00:13;;;;;;;8.65;5.33;;;;;;;25.40;82.24;100908.52;1746579;81;21563;-42
2022/08/10 08:02:54;;;;;;;5.97;5.12;;;;;;;25.65;81.18;100897.44;1746612;82;20885;-42
2022/08/10 08:05:23;;;;;;;5.28;4.83;;;;;;;25.72;80.86;100896.97;1746508;82;21411;-42
2022/08/10 08:07:51;;;;;;;5.80;5.33;;;;;;;25.80;80.30;100887.47;1746709;80;21418;-43
2022/08/10 08:10:18;;;;;;;5.97;5.25;;;;;;;25.75;80.98;100888.31;1746717;80;21023;-42
2022/08/10 08:12:46;;;;;;;8.65;5.58;;;;;;;25.75;80.39;100894.08;1746535;80;21063;-43
2022/08/10 08:15:16;;;;;;;5.67;5.17;;;;;;;25.70;80.73;100893.12;1746683;82;20936;-43
2022/08/10 08:17:44;;;;;;;5.78;5.12;;;;;;;25.68;80.03;100895.05;1725749;82;20865;-41
2022/08/10 08:20:10;;;;;;;8.95;5.12;;;;;;;25.70;81.52;100881.20;1725414;82;21198;-43
2022/08/10 08:22:39;;;;;;;5.70;5.17;;;;;;;25.95;80.58;100888.10;1726432;82;20952;-42
2022/08/10 08:25:07;;;;;;;10.38;5.15;;;;;;;26.15;78.04;100880.91;1725843;82;21837;-41
2022/08/10 08:27:36;;;;;;;8.60;6.25;;;;;;;26.21;78.69;100882.61;1746477;80;21561;-42
2022/08/10 08:30:06;;;;;;;8.15;5.12;;;;;;;26.30;78.48;100875.74;1750375;79;20924;-41
2022/08/10 08:32:34;;;;;;;8.33;5.65;;;;;;;26.51;76.26;100875.02;1746563;80;20936;-41
2022/08/10 08:35:06;;;;;;;11.50;5.65;;;;;;;26.61;75.75;100871.14;1725834;82;20960;-42
2022/08/10 08:37:33;;;;;;;5.75;5.25;;;;;;;26.60;77.08;100867.63;1746891;82;22326;-42
2022/08/10 08:40:02;;;;;;;8.73;5.42;;;;;;;26.59;78.32;100874.41;1746588;82;20878;-42
2022/08/10 08:42:58;;;;;;;11.33;5.25;;;;;;;26.67;77.44;100871.50;1746344;82;20981;-42
2022/08/10 08:45:58;;;;;;;5.87;5.37;;;;;;;26.70;78.20;100877.53;1746780;82;20893;-43
2022/08/10 08:48:31;;;;;;;5.25;4.85;;;;;;;26.83;77.07;100871.57;1746754;80;20984;-42
2022/08/10 08:51:27;;;;;;;6.87;5.17;;;;;;;26.87;74.77;100872.20;1746418;80;21157;-42
2022/08/10 08:54:14;;;;;;;11.33;5.12;;;;;;;26.86;73.86;100883.80;1746596;82;21423;-43
2022/08/10 08:57:04;;;;;;;5.47;5.08;;;;;;;26.90;74.41;100863.48;1746918;82;20939;-42
2022/08/10 09:00:05;;;;;;;6.30;5.70;;;;;;;26.98;73.74;100857.55;1746554;82;21545;-42
2022/08/10 09:02:51;;;;;;;5.80;5.30;;;;;;;26.95;75.03;100856.48;1746619;82;21007;-42
2022/08/10 09:05:24;;;;;;;7.75;5.30;;;;;;;27.03;75.13;100850.08;1746706;82;22339;-42
2022/08/10 09:08:11;;;;;;;6.12;5.20;;;;;;;27.01;75.13;100853.31;1746030;82;20959;-41
2022/08/10 09:11:21;;;;;;;5.70;4.90;;;;;;;26.89;74.93;100851.18;1746829;82;21540;-42
2022/08/10 09:14:17;;;;;;;9.43;5.45;;;;;;;26.80;75.30;100847.92;1746612;80;20964;-42
2022/08/10 09:16:56;;;;;;;6.15;4.70;;;;;;;26.84;74.93;100848.03;1709871;82;20951;-42
2022/08/10 09:19:54;;;;;;;16.05;5.80;;;;;;;26.91;74.62;100854.58;1746901;81;21032;-42
2022/08/10 09:22:57;;;;;;;7.17;4.95;;;;;;;27.04;73.19;100849.11;1747169;80;20948;-42
2022/08/10 09:25:27;;;;;;;11.80;4.95;;;;;;;27.22;73.06;100842.74;1749200;82;20932;-42
2022/08/10 09:28:06;;;;;;;7.22;4.78;;;;;;;27.25;73.47;100846.94;1749110;81;20908;-42
2022/08/10 09:30:55;;;;;;;9.15;5.08;;;;;;;27.37;72.46;100847.73;1749796;82;20947;-42
2022/08/10 09:34:02;;;;;;;12.55;5.40;;;;;;;27.63;70.90;100850.03;1749367;82;22049;-42
2022/08/10 09:37:08;;;;;;;9.63;5.50;;;;;;;27.81;70.29;100844.98;1749338;81;20913;-42
2022/08/10 09:39:43;;;;;;;11.68;5.78;;;;;;;27.80;71.69;100852.10;1749448;82;21410;-42
2022/08/10 09:42:41;;;;;;;7.28;5.50;;;;;;;27.80;71.19;100849.44;1749488;82;20969;-42
2022/08/10 09:45:41;;;;;;;6.92;5.10;;;;;;;27.82;72.15;100844.01;1739646;82;21521;-43
2022/08/10 09:48:25;;;;;;;7.35;5.55;;;;;;;27.78;70.62;100855.38;1713408;82;21430;-43
2022/08/10 09:51:28;;;;;;;7.08;5.17;;;;;;;27.66;71.83;100837.80;1749343;82;20988;-43
2022/08/10 09:54:26;;;;;;;6.62;5.50;;;;;;;27.72;72.17;100837.77;1749376;82;21522;-43
2022/08/10 09:57:26;;;;;;;8.90;5.25;;;;;;;27.91;70.43;100833.89;1747895;82;20849;-42
2022/08/10 10:00:08;;;;;;;10.63;5.20;;;;;;;28.02;69.37;100831.63;1749483;81;21458;-43
2022/08/10 10:03:08;;;;;;;5.95;5.37;;;;;;;28.10;68.32;100830.47;1746721;81;21878;-43
2022/08/10 10:06:04;;;;;;;8.30;5.10;;;;;;;28.10;69.94;100834.96;1749212;82;20948;-43
2022/08/10 10:09:09;;;;;;;17.10;4.75;;;;;;;28.06;71.17;100838.37;1749693;80;21023;-43
2022/08/10 10:11:53;;;;;;;10.72;4.75;;;;;;;27.82;68.96;100839.52;1749450;81;21501;-43
2022/08/10 10:15:19;;;;;;;10.78;5.35;;;;;;;27.79;68.86;100833.64;1749222;82;22541;-43
2022/08/10 10:18:30;;;;;;;5.53;4.97;;;;;;;27.82;69.92;100831.53;1749419;80;21158;-43
2022/08/10 10:21:18;;;;;;;5.62;5.03;;;;;;;28.05;67.49;100831.87;1749345;82;20932;-43
2022/08/10 10:23:59;;;;;;;7.60;5.50;;;;;;;28.01;67.43;100825.10;1747108;80;21062;-43
2022/08/10 10:26:49;;;;;;;5.62;5.33;;;;;;;28.09;66.79;100829.28;1746454;82;21664;-43
2022/08/10 10:29:30;;;;;;;6.05;4.75;;;;;;;28.04;69.20;100827.49;1746504;82;21493;-43
2022/08/10 10:32:19;;;;;;;5.83;5.40;;;;;;;28.00;68.50;100825.61;1746517;82;21201;-43
2022/08/10 10:34:54;;;;;;;6.45;5.67;;;;;;;27.79;70.89;100824.33;1745801;80;20937;-43
2022/08/10 10:37:21;;;;;;;;;;;;;;;27.69;71.22;100822.95;1749181;82;20901;-43
2022/08/10 10:39:54;;;;;;;11.85;4.60;;;;;;;27.77;69.21;100823.12;1746621;82;20091;-43
2022/08/10 10:42:42;;;;;;;6.87;5.17;;;;;;;27.62;70.99;100818.63;1746692;80;20984;-43
2022/08/10 10:45:26;;;;;;;7.58;4.97;;;;;;;27.45;70.78;100819.19;1746638;81;21282;-43
2022/08/10 10:48:20;;;;;;;4.95;4.40;;;;;;;27.47;71.72;100822.08;1745995;82;20972;-43
2022/08/10 10:51:27;;;;;;;4.55;4.15;;;;;;;27.33;71.20;100815.75;1746813;82;20976;-43
2022/08/10 10:54:22;;;;;;;4.65;4.28;;;;;;;27.30;70.30;100822.19;1745598;80;20964;-43
2022/08/10 10:57:30;;;;;;;6.80;4.50;;;;;;;27.09;70.03;100816.83;1746932;82;21031;-43
2022/08/10 11:00:08;;;;;;;7.00;4.33;;;;;;;26.92;71.46;100815.11;1746660;82;21213;-42
2022/08/10 11:02:59;;;;;;;4.72;4.42;;;;;;;26.90;72.01;100816.19;1746039;82;21036;-43
2022/08/10 11:05:53;;;;;;;10.70;4.50;;;;;;;26.98;71.61;100819.05;1745976;82;20984;-43
2022/08/10 11:08:25;;;;;;;8.58;4.33;;;;;;;27.02;72.09;100812.50;1746422;82;20965;-43
2022/08/10 11:11:22;;;;;;;7.00;4.47;;;;;;;27.45;73.02;100820.52;1746712;82;21442;-42
2022/08/10 11:14:09;;;;;;;9.95;5.03;;;;;;;27.94;71.28;100819.50;1746380;80;21244;-43
2022/08/10 11:16:58;;;;;;;6.28;4.80;;;;;;;28.30;68.70;100816.44;1746533;82;20992;-42
2022/08/10 11:20:12;;;;;;;5.65;4.28;;;;;;;28.42;69.42;100814.01;1746435;82;20900;-42
2022/08/10 11:23:03;;;;;;;4.37;4.03;;;;;;;28.64;67.21;100813.42;1749235;81;21020;-43
2022/08/10 11:25:32;;;;;;;8.85;4.42;;;;;;;28.85;66.61;100815.98;1724563;81;20910;-42
2022/08/10 11:28:20;;;;;;;5.20;4.00;;;;;;;28.99;65.30;100812.56;1762916;80;21694;-42
2022/08/10 11:31:05;;;;;;;4.55;4.15;;;;;;;28.86;65.23;100812.84;1761962;81;20980;-42
2022/08/10 11:34:02;;;;;;;8.03;4.20;;;;;;;28.59;65.56;100816.99;1678762;84;21594;-41
2022/08/10 11:37:17;;;;;;;7.58;3.70;;;;;;;28.49;65.29;100815.13;1761559;81;20894;-42
2022/08/10 11:39:58;;;;;;;4.35;4.03;;;;;;;28.39;65.28;100814.28;1762971;80;21031;-41
2022/08/10 11:42:44;;;;;;;3.95;3.67;;;;;;;28.05;66.51;100822.05;1763166;81;21093;-42
2022/08/10 11:45:30;;;;;;;9.48;3.85;;;;;;;27.96;67.17;100818.88;1763131;81;20937;-42
2022/08/10 11:48:07;;;;;;;6.83;3.47;;;;;;;27.95;65.28;100819.34;1754489;81;20972;-42
2022/08/10 11:50:51;;;;;;;3.87;3.55;;;;;;;27.95;66.52;100829.16;1762917;81;20992;-42
2022/08/10 11:53:43;;;;;;;3.87;3.58;;;;;;;27.96;65.42;100824.20;1763369;81;20965;-42
2022/08/10 11:56:13;;;;;;;4.12;3.62;;;;;;;27.98;65.54;100818.25;1763043;81;21264;-42
2022/08/10 12:01:30;;;;;;;4.20;3.25;;;;;;;27.99;65.03;100809.30;1763009;81;26606;-42
2022/08/10 12:03:56;;;;;;;5.35;3.42;;;;;;;27.85;66.05;100807.84;1763576;81;20941;-43
2022/08/10 12:06:23;;;;;;;5.45;3.62;;;;;;;27.79;67.16;100807.88;1762774;80;20877;-43